createdAt,value
2023-03-28T12:04:49.690Z,55.56
2023-03-28T12:05:49.641Z,56.49
2023-03-28T12:07:01.928Z,55.46
2023-03-28T12:07:50.554Z,54.15
2023-03-28T12:08:49.649Z,55.49
2023-03-28T12:09:49.561Z,53.95
2023-03-28T12:10:49.532Z,53.74
2023-03-28T12:11:57.350Z,54.02
2023-03-28T12:12:49.538Z,55.87
2023-03-28T12:13:55.475Z,54.44
2023-03-28T12:14:50.447Z,52.31
2023-03-28T12:15:49.434Z,55.08
2023-03-28T12:16:49.506Z,55.38
2023-03-28T12:17:49.480Z,53.85
2023-03-28T12:18:49.408Z,56.90
2023-03-28T12:19:49.357Z,52.41
2023-03-28T12:20:49.380Z,53.31
2023-03-28T12:21:49.347Z,53.31
2023-03-28T12:22:49.391Z,54.51
2023-03-28T12:23:49.391Z,52.77
2023-03-28T12:24:49.384Z,53.72
2023-03-28T12:25:49.298Z,52.18
2023-03-28T12:26:49.300Z,55.54
2023-03-28T12:27:49.325Z,53.28
2023-03-28T12:28:49.264Z,53.36
2023-03-28T12:29:49.290Z,52.95
2023-03-28T12:30:49.331Z,52.00
2023-03-28T12:31:49.226Z,50.78
2023-03-28T12:32:49.202Z,51.59
2023-03-28T12:33:49.316Z,51.82
2023-03-28T12:34:49.195Z,53.26
2023-03-28T12:35:49.258Z,53.77
2023-03-28T12:36:49.258Z,52.13
2023-03-28T12:37:49.131Z,50.37
2023-03-28T12:38:49.117Z,53.00
2023-03-28T12:39:49.132Z,53.44
2023-03-28T12:40:49.060Z,49.84
2023-03-28T12:41:49.061Z,49.00
2023-03-28T12:42:49.114Z,47.45
2023-03-28T12:43:49.112Z,46.81
2023-03-28T12:44:49.012Z,47.32
2023-03-28T12:45:49.010Z,45.67
2023-03-28T12:46:49.009Z,46.89
2023-03-28T12:47:49.176Z,47.08
2023-03-28T12:48:49.051Z,45.57
2023-03-28T12:49:49.050Z,46.55
2023-03-28T12:50:49.209Z,49.29
2023-03-28T12:51:49.071Z,45.12
2023-03-28T12:52:49.156Z,45.86
2023-03-28T12:53:49.061Z,47.67
2023-03-28T12:54:49.103Z,47.27
2023-03-28T12:55:48.945Z,46.37
2023-03-28T12:56:48.866Z,48.84
2023-03-28T12:57:48.990Z,49.95
2023-03-28T12:58:49.042Z,47.80
2023-03-28T12:59:51.126Z,48.54
2023-03-28T13:00:48.872Z,47.92
2023-03-28T13:01:48.817Z,48.25
2023-03-28T13:02:48.820Z,48.58
2023-03-28T13:03:48.826Z,51.14
2023-03-28T13:04:55.475Z,50.14
2023-03-28T13:05:48.750Z,49.83
2023-03-28T13:06:49.244Z,53.69
2023-03-28T13:07:48.974Z,51.42
2023-03-28T13:08:48.918Z,49.89
2023-03-28T13:09:48.811Z,49.07
2023-03-28T13:10:48.682Z,50.22
2023-03-28T13:11:48.781Z,51.53
2023-03-28T13:12:49.004Z,48.91
2023-03-28T13:13:48.657Z,47.58
2023-03-28T13:14:48.674Z,49.60
2023-03-28T13:15:48.857Z,50.07
2023-03-28T13:16:48.704Z,52.09
2023-03-28T13:17:48.817Z,47.08
2023-03-28T13:18:48.705Z,47.29
2023-03-28T13:19:48.722Z,46.26
2023-03-28T13:20:48.772Z,49.22
2023-03-28T13:21:49.055Z,46.96
2023-03-28T13:22:48.602Z,46.86
2023-03-28T13:23:48.657Z,46.06
2023-03-28T13:24:48.717Z,45.90
2023-03-28T13:25:48.581Z,46.72
2023-03-28T13:26:48.516Z,46.82
2023-03-28T13:27:48.494Z,47.44
2023-03-28T13:28:48.535Z,47.15
2023-03-28T13:29:48.687Z,47.97
2023-03-28T13:30:48.442Z,48.40
2023-03-28T13:31:48.494Z,48.60
2023-03-28T13:32:48.503Z,50.65
2023-03-28T13:33:49.523Z,51.37
2023-03-28T13:34:48.394Z,49.44
2023-03-28T13:35:48.536Z,48.65
2023-03-28T13:36:48.497Z,49.37
2023-03-28T13:37:48.360Z,48.83
2023-03-28T13:38:48.782Z,50.65
2023-03-28T13:39:48.269Z,48.38
2023-03-28T13:40:48.656Z,48.48
2023-03-28T13:41:49.526Z,49.89
2023-03-28T13:42:48.458Z,49.25
2023-03-28T13:43:48.860Z,48.43
2023-03-28T13:44:48.466Z,46.23
2023-03-28T13:45:48.426Z,48.50
2023-03-28T13:46:48.511Z,47.17
2023-03-28T13:47:50.177Z,50.65
2023-03-28T13:48:49.396Z,48.91
2023-03-28T13:49:48.134Z,49.01
2023-03-28T13:50:48.119Z,47.07
2023-03-28T13:51:48.121Z,48.99
2023-03-28T13:52:48.109Z,45.94
2023-03-28T13:53:48.587Z,47.68
2023-03-28T13:54:56.672Z,46.97
2023-03-28T13:55:48.073Z,46.78
2023-03-28T13:56:48.062Z,46.56
2023-03-28T13:57:48.078Z,46.15
2023-03-28T13:58:48.036Z,46.44
2023-03-28T13:59:48.099Z,46.74
2023-03-28T14:00:48.004Z,44.51
2023-03-28T14:01:48.152Z,45.25
2023-03-28T14:02:48.319Z,45.56
2023-03-28T14:03:48.358Z,45.53
2023-03-28T14:04:48.092Z,45.12
2023-03-28T14:05:48.133Z,47.05
2023-03-28T14:06:48.291Z,47.82
2023-03-28T14:07:47.935Z,46.88
2023-03-28T14:08:47.927Z,46.26
2023-03-28T14:09:47.917Z,44.73
2023-03-28T14:10:47.959Z,47.80
2023-03-28T14:11:47.897Z,47.69
2023-03-28T14:12:47.877Z,49.92
2023-03-28T14:13:47.819Z,44.45
2023-03-28T14:14:47.825Z,43.98
2023-03-28T14:15:47.781Z,45.64
2023-03-28T14:16:48.504Z,45.76
2023-03-28T14:17:47.790Z,46.17
2023-03-28T14:18:47.775Z,47.58
2023-03-28T14:19:47.844Z,46.74
2023-03-28T14:20:48.434Z,49.25
2023-03-28T14:21:47.918Z,45.94
2023-03-28T14:22:59.116Z,45.92
2023-03-28T14:23:48.715Z,42.85
2023-03-28T14:24:48.576Z,44.78
2023-03-28T14:25:47.648Z,45.10
2023-03-28T14:26:47.640Z,43.20
2023-03-28T14:27:47.629Z,43.85
2023-03-28T14:28:47.640Z,46.31
2023-03-28T14:29:47.603Z,46.19
2023-03-28T14:30:47.618Z,45.65
2023-03-28T14:31:47.602Z,46.55
2023-03-28T14:32:57.136Z,44.10
2023-03-28T14:33:48.603Z,43.79
2023-03-28T14:34:47.643Z,44.51
2023-03-28T14:35:47.584Z,45.84
2023-03-28T14:36:47.561Z,45.72
2023-03-28T14:37:47.549Z,44.78
2023-03-28T14:38:47.511Z,44.55
2023-03-28T14:39:47.494Z,46.87
2023-03-28T14:40:47.463Z,42.49
2023-03-28T14:41:47.483Z,43.81
2023-03-28T14:42:47.477Z,43.63
2023-03-28T14:43:47.449Z,42.61
2023-03-28T14:44:47.419Z,45.06
2023-03-28T14:45:47.495Z,43.43
2023-03-28T14:46:47.391Z,42.63
2023-03-28T14:47:48.131Z,44.26
2023-03-28T14:48:47.334Z,43.08
2023-03-28T14:49:47.382Z,44.04
2023-03-28T14:50:47.443Z,45.25
2023-03-28T14:51:47.338Z,46.63
2023-03-28T14:52:47.378Z,44.26
2023-03-28T14:53:47.319Z,43.75
2023-03-28T14:54:47.344Z,42.96
2023-03-28T14:55:47.314Z,44.78
2023-03-28T14:56:47.319Z,42.63
2023-03-28T14:57:47.399Z,44.85
2023-03-28T14:58:47.408Z,44.16
2023-03-28T14:59:47.254Z,45.51
2023-03-28T15:00:47.269Z,45.14
2023-03-28T15:01:47.204Z,45.84
2023-03-28T15:02:47.318Z,46.51
2023-03-28T15:03:47.374Z,45.04
2023-03-28T15:04:47.222Z,43.69
2023-03-28T15:05:47.160Z,44.06
2023-03-28T15:06:47.212Z,43.26
2023-03-28T15:07:47.082Z,42.86
2023-03-28T15:08:47.209Z,41.02
2023-03-28T15:09:47.087Z,42.90
2023-03-28T15:10:47.130Z,42.83
2023-03-28T15:11:47.073Z,42.73
2023-03-28T15:12:47.117Z,42.43
2023-03-28T15:13:47.024Z,43.04
2023-03-28T15:14:47.043Z,43.63
2023-03-28T15:15:47.005Z,42.61
2023-03-28T15:16:47.064Z,43.81
2023-03-28T15:17:47.011Z,46.01
2023-03-28T15:18:46.996Z,42.14
2023-03-28T15:19:46.994Z,41.63
2023-03-28T15:20:46.920Z,42.08
2023-03-28T15:21:46.927Z,42.94
2023-03-28T15:22:46.901Z,45.81
2023-03-28T15:23:46.956Z,43.79
2023-03-28T15:24:46.925Z,43.69
2023-03-28T15:25:47.008Z,43.98
2023-03-28T15:26:46.959Z,44.10
2023-03-28T15:27:47.076Z,47.98
2023-03-28T15:28:46.794Z,44.61
2023-03-28T15:29:46.807Z,45.65
2023-03-28T15:30:46.874Z,45.45
2023-03-28T15:31:46.888Z,45.53
2023-03-28T15:32:47.048Z,46.16
2023-03-28T15:33:46.811Z,46.59
2023-03-28T15:34:47.251Z,47.33
2023-03-28T15:35:46.765Z,46.21
2023-03-28T15:36:46.704Z,46.33
2023-03-28T15:37:46.745Z,47.66
2023-03-28T15:38:46.668Z,48.17
2023-03-28T15:39:46.735Z,47.78
2023-03-28T15:40:46.650Z,47.91
2023-03-28T15:41:46.673Z,47.91
2023-03-28T15:42:46.734Z,48.60
2023-03-28T15:43:46.613Z,49.63
2023-03-28T15:44:46.635Z,48.19
2023-03-28T15:45:46.622Z,49.83
2023-03-28T15:46:46.726Z,48.81
2023-03-28T15:47:46.583Z,50.14
2023-03-28T15:48:46.570Z,48.40
2023-03-28T15:49:47.536Z,48.22
2023-03-28T15:50:46.528Z,48.83
2023-03-28T15:51:46.526Z,49.77
2023-03-28T15:52:46.610Z,50.09
2023-03-28T15:53:46.586Z,49.57
2023-03-28T15:54:46.463Z,50.80
2023-03-28T15:55:46.478Z,50.39
2023-03-28T15:56:46.479Z,49.59
2023-03-28T15:57:48.064Z,50.42
2023-03-28T15:58:46.445Z,50.21
2023-03-28T15:59:46.422Z,51.13
2023-03-28T16:00:47.854Z,51.64
2023-03-28T16:01:46.455Z,50.93
2023-03-28T16:02:46.371Z,52.15
2023-03-28T16:03:46.416Z,52.15
2023-03-28T16:04:46.387Z,52.05
2023-03-28T16:05:46.317Z,53.49
2023-03-28T16:06:46.469Z,51.64
2023-03-28T16:07:46.409Z,51.34
2023-03-28T16:08:46.292Z,51.82
2023-03-28T16:09:46.273Z,51.01
2023-03-28T16:10:46.232Z,51.10
2023-03-28T16:11:46.265Z,50.70
2023-03-28T16:12:46.252Z,51.51
2023-03-28T16:13:46.219Z,52.64
2023-03-28T16:14:46.222Z,52.64
2023-03-28T16:15:46.435Z,50.37
2023-03-28T16:16:46.228Z,51.18
2023-03-28T16:17:46.175Z,51.82
2023-03-28T16:18:46.144Z,50.80
2023-03-28T16:19:46.177Z,50.90
2023-03-28T16:20:46.141Z,51.62
2023-03-28T16:21:46.141Z,51.82
2023-03-28T16:22:46.068Z,50.80
2023-03-28T16:23:46.098Z,52.95
2023-03-28T16:24:46.039Z,50.70
2023-03-28T16:25:46.049Z,51.82
2023-03-28T16:26:46.024Z,51.82
2023-03-28T16:27:46.059Z,52.34
2023-03-28T16:28:45.982Z,55.21
2023-03-28T16:29:45.975Z,53.36
2023-03-28T16:30:45.948Z,52.03
2023-03-28T16:31:46.093Z,51.82
2023-03-28T16:32:45.952Z,52.36
2023-03-28T16:33:45.935Z,52.05
2023-03-28T16:34:45.926Z,52.26
2023-03-28T16:35:45.969Z,52.36
2023-03-28T16:36:45.887Z,53.08
2023-03-28T16:37:45.957Z,51.36
2023-03-28T16:38:45.856Z,52.47
2023-03-28T16:39:45.831Z,52.28
2023-03-28T16:40:45.818Z,52.39
2023-03-28T16:41:45.857Z,51.77
2023-03-28T16:42:45.950Z,51.87
2023-03-28T16:43:45.819Z,52.49
2023-03-28T16:44:45.785Z,51.87
2023-03-28T16:45:45.794Z,52.80
2023-03-28T16:46:45.760Z,52.18
2023-03-28T16:47:45.797Z,52.80
2023-03-28T16:48:45.718Z,54.85
2023-03-28T16:49:45.683Z,54.23
2023-03-28T16:50:45.663Z,53.72
2023-03-28T16:51:45.692Z,53.20
2023-03-28T16:52:45.655Z,53.41
2023-03-28T16:53:45.843Z,53.51
2023-03-28T16:54:45.668Z,52.59
2023-03-28T16:55:45.648Z,53.31
2023-03-28T16:56:45.702Z,52.90
2023-03-28T16:57:45.685Z,54.23
2023-03-28T16:58:45.568Z,54.44
2023-03-28T16:59:45.614Z,54.13
2023-03-28T17:00:45.547Z,52.90
2023-03-28T17:01:45.606Z,53.51
2023-03-28T17:02:45.595Z,54.33
2023-03-28T17:03:45.574Z,53.51
2023-03-28T17:04:45.470Z,53.51
2023-03-28T17:05:45.484Z,52.92
2023-03-28T17:06:45.432Z,53.64
2023-03-28T17:07:45.546Z,52.41
2023-03-28T17:08:45.415Z,53.74
2023-03-28T17:09:45.440Z,53.64
2023-03-28T17:10:45.430Z,54.66
2023-03-28T17:11:45.361Z,53.95
2023-03-28T17:12:46.657Z,53.23
2023-03-28T17:13:46.527Z,53.74
2023-03-28T17:14:45.387Z,54.05
2023-03-28T17:15:45.321Z,53.33
2023-03-28T17:16:46.419Z,53.74
2023-03-28T17:17:45.447Z,55.49
2023-03-28T17:18:45.290Z,54.77
2023-03-28T17:19:45.939Z,54.66
2023-03-28T17:20:45.271Z,54.66
2023-03-28T17:21:45.273Z,53.95
2023-03-28T17:22:45.218Z,54.36
2023-03-28T17:23:45.242Z,55.49
2023-03-28T17:24:45.182Z,55.08
2023-03-28T17:25:54.485Z,54.25
2023-03-28T17:26:46.189Z,53.95
2023-03-28T17:27:45.147Z,54.05
2023-03-28T17:28:45.201Z,53.87
2023-03-28T17:29:45.203Z,54.59
2023-03-28T17:30:45.097Z,55.00
2023-03-28T17:31:45.096Z,55.21
2023-03-28T17:32:45.204Z,54.79
2023-03-28T17:33:45.127Z,55.51
2023-03-28T17:34:45.178Z,55.92
2023-03-28T17:35:45.106Z,55.30
2023-03-28T17:36:45.050Z,56.13
2023-03-28T17:37:45.018Z,56.74
2023-03-28T17:38:45.036Z,56.05
2023-03-28T17:39:44.985Z,55.74
2023-03-28T17:40:45.019Z,56.36
2023-03-28T17:41:44.948Z,54.82
2023-03-28T17:42:44.946Z,56.15
2023-03-28T17:43:46.152Z,58.00
2023-03-28T17:44:44.910Z,57.18
2023-03-28T17:45:44.897Z,56.67
2023-03-28T17:46:44.917Z,56.49
2023-03-28T17:47:44.931Z,57.10
2023-03-28T17:48:45.093Z,57.10
2023-03-28T17:49:44.905Z,57.41
2023-03-28T17:50:44.850Z,56.79
2023-03-28T17:51:45.158Z,57.93
2023-03-28T17:52:46.535Z,58.34
2023-03-28T17:53:44.775Z,58.23
2023-03-28T17:54:44.870Z,57.85
2023-03-28T17:55:47.959Z,58.78
2023-03-28T17:56:44.867Z,58.78
2023-03-28T17:57:45.212Z,59.29
2023-03-28T17:58:44.917Z,59.29
2023-03-28T17:59:44.774Z,58.98
2023-03-28T18:00:44.707Z,59.22
2023-03-28T18:01:46.257Z,60.14
2023-03-28T18:02:44.808Z,60.55
2023-03-28T18:03:44.855Z,59.22
2023-03-28T18:04:44.741Z,59.39
2023-03-28T18:05:44.655Z,59.01
2023-03-28T18:06:44.681Z,58.80
2023-03-28T18:07:44.637Z,58.70
2023-03-28T18:08:44.691Z,58.91
2023-03-28T18:09:44.651Z,59.22
2023-03-28T18:10:44.569Z,59.73
2023-03-28T18:11:44.555Z,59.42
2023-03-28T18:12:44.497Z,60.24
2023-03-28T18:13:44.690Z,60.45
2023-03-28T18:14:44.535Z,59.83
2023-03-28T18:15:44.580Z,60.24
2023-03-28T18:16:44.682Z,60.24
2023-03-28T18:17:44.526Z,60.55
2023-03-28T18:18:44.481Z,60.24
2023-03-28T18:19:44.505Z,59.93
2023-03-28T18:20:44.392Z,60.65
2023-03-28T18:21:44.406Z,60.96
2023-03-28T18:22:44.417Z,60.86
2023-03-28T18:23:44.441Z,60.24
2023-03-28T18:24:44.370Z,60.35
2023-03-28T18:25:44.388Z,60.55
2023-03-28T18:26:44.320Z,60.96
2023-03-28T18:27:44.505Z,61.07
2023-03-28T18:28:44.393Z,60.86
2023-03-28T18:29:44.318Z,60.55
2023-03-28T18:30:44.271Z,60.24
2023-03-28T18:31:44.368Z,60.14
2023-03-28T18:32:44.275Z,60.96
2023-03-28T18:33:44.261Z,60.35
2023-03-28T18:34:44.233Z,60.65
2023-03-28T18:35:44.281Z,60.45
2023-03-28T18:36:44.189Z,60.65
2023-03-28T18:37:44.242Z,60.14
2023-03-28T18:38:44.152Z,60.55
2023-03-28T18:39:44.145Z,60.86
2023-03-28T18:40:44.139Z,62.19
2023-03-28T18:41:44.198Z,61.99
2023-03-28T18:42:44.146Z,61.17
2023-03-28T18:43:44.105Z,61.99
2023-03-28T18:44:44.666Z,61.99
2023-03-28T18:45:44.153Z,60.96
2023-03-28T18:46:44.041Z,60.21
2023-03-28T18:47:44.103Z,61.24
2023-03-28T18:48:44.104Z,61.76
2023-03-28T18:49:44.050Z,62.37
2023-03-28T18:50:45.103Z,62.37
2023-03-28T18:51:44.000Z,60.73
2023-03-28T18:52:44.066Z,60.73
2023-03-28T18:53:54.558Z,60.73
2023-03-28T18:54:43.937Z,60.60
2023-03-28T18:55:43.924Z,59.88
2023-03-28T18:56:43.937Z,59.88
2023-03-28T18:57:43.951Z,60.08
2023-03-28T18:58:43.990Z,60.16
2023-03-28T18:59:43.981Z,60.39
2023-03-28T19:00:43.959Z,60.80
2023-03-28T19:01:45.094Z,60.39
2023-03-28T19:02:43.975Z,61.32
2023-03-28T19:03:43.876Z,62.65
2023-03-28T19:04:43.910Z,63.06
2023-03-28T19:05:43.862Z,63.47
2023-03-28T19:06:43.903Z,63.81
2023-03-28T19:07:43.797Z,64.73
2023-03-28T19:08:43.773Z,65.56
2023-03-28T19:09:43.808Z,66.28
2023-03-28T19:10:43.752Z,66.38
2023-03-28T19:11:43.734Z,66.82
2023-03-28T19:12:43.715Z,66.41
2023-03-28T19:13:43.736Z,67.03
2023-03-28T19:14:43.688Z,67.13
2023-03-28T19:15:43.762Z,67.95
2023-03-28T19:16:43.716Z,70.32
2023-03-28T19:17:43.738Z,70.45
2023-03-28T19:18:43.653Z,72.61
2023-03-28T19:19:43.630Z,74.50
2023-03-28T19:20:43.592Z,75.52
2023-03-28T19:21:43.683Z,77.93
2023-03-28T19:22:43.602Z,76.79
2023-03-28T19:23:43.591Z,75.35
2023-03-28T19:24:43.564Z,75.81
2023-03-28T19:25:43.547Z,77.04
2023-03-28T19:26:43.533Z,76.63
2023-03-28T19:27:43.498Z,77.76
2023-03-28T19:28:43.520Z,77.55
2023-03-28T19:29:43.518Z,79.51
2023-03-28T19:30:43.494Z,79.30
2023-03-28T19:31:43.560Z,79.86
2023-03-28T19:32:43.476Z,80.99
2023-03-28T19:33:43.484Z,80.82
2023-03-28T19:34:43.547Z,80.82
2023-03-28T19:35:43.443Z,80.93
2023-03-28T19:36:43.413Z,82.37
2023-03-28T19:37:43.364Z,81.44
2023-03-28T19:38:43.429Z,82.26
2023-03-28T19:39:43.370Z,81.44
2023-03-28T19:40:43.366Z,82.16
2023-03-28T19:41:43.375Z,82.16
2023-03-28T19:42:43.304Z,81.75
2023-03-28T19:43:43.379Z,81.75
2023-03-28T19:44:43.331Z,81.13
2023-03-28T19:45:43.305Z,81.54
2023-03-28T19:46:43.341Z,81.44
2023-03-28T19:47:43.276Z,81.96
2023-03-28T19:48:43.236Z,83.19
2023-03-28T19:49:43.265Z,82.57
2023-03-28T19:50:43.231Z,82.89
2023-03-28T19:51:43.216Z,83.29
2023-03-28T19:52:43.213Z,83.40
2023-03-28T19:53:43.204Z,82.57
2023-03-28T19:54:43.189Z,82.16
2023-03-28T19:56:53.561Z,82.47
2023-03-28T19:57:53.549Z,83.40
2023-03-28T19:58:53.595Z,83.03
2023-03-28T19:59:53.503Z,82.82
2023-03-28T20:00:53.464Z,84.47
2023-03-28T20:01:53.488Z,84.36
2023-03-28T20:02:53.503Z,83.85
2023-03-28T20:03:53.584Z,84.16
2023-03-28T20:04:53.462Z,85.19
2023-03-28T20:05:53.444Z,83.75
2023-03-28T20:06:53.415Z,84.78
2023-03-28T20:07:53.415Z,84.30
2023-03-28T20:08:53.477Z,86.26
2023-03-28T20:09:53.435Z,86.78
2023-03-28T20:10:53.382Z,85.54
2023-03-28T20:11:53.419Z,85.13
2023-03-28T20:12:53.349Z,85.23
2023-03-28T20:13:53.365Z,86.47
2023-03-28T20:14:55.036Z,86.68
2023-03-28T20:15:53.340Z,85.54
2023-03-28T20:16:53.291Z,85.75
2023-03-28T20:17:53.334Z,86.78
2023-03-28T20:18:53.262Z,87.02
2023-03-28T20:19:53.294Z,87.34
2023-03-28T20:20:53.297Z,87.23
2023-03-28T20:21:53.247Z,88.37
2023-03-28T20:22:53.219Z,88.78
2023-03-28T20:23:53.212Z,89.40
2023-03-28T20:24:53.268Z,89.81
2023-03-28T20:25:53.221Z,90.22
2023-03-28T20:26:53.158Z,90.43
2023-03-28T20:27:53.144Z,90.47
2023-03-28T20:28:53.162Z,90.26
2023-03-28T20:29:53.168Z,90.16
2023-03-28T20:30:53.223Z,90.06
2023-03-28T20:31:53.145Z,90.68
2023-03-28T20:32:53.111Z,91.09
2023-03-28T20:33:53.079Z,91.82
2023-03-28T20:34:53.109Z,91.82
2023-03-28T20:35:53.080Z,92.02
2023-03-28T20:36:53.021Z,92.13
2023-03-28T20:37:53.045Z,92.68
2023-03-28T20:38:53.040Z,93.47
2023-03-28T20:39:53.004Z,94.23
2023-03-28T20:40:53.007Z,94.34
2023-03-28T20:41:52.965Z,94.75
2023-03-28T20:42:52.959Z,94.85
2023-03-28T20:43:52.982Z,95.48
2023-03-28T20:44:52.937Z,95.42
2023-03-28T20:45:52.947Z,95.73
2023-03-28T20:46:52.992Z,96.03
2023-03-28T20:47:52.969Z,96.14
2023-03-28T20:48:53.414Z,96.66
2023-03-28T20:49:52.911Z,96.45
2023-03-28T20:50:52.855Z,97.07
2023-03-28T20:51:52.893Z,97.49
2023-03-28T20:52:52.826Z,97.79
2023-03-28T20:53:52.866Z,98.00
2023-03-28T20:54:52.833Z,98.15
2023-03-28T20:55:52.817Z,98.56
2023-03-28T20:56:52.857Z,98.87
2023-03-28T20:57:52.784Z,98.87
2023-03-28T20:58:52.830Z,98.97
2023-03-28T20:59:52.785Z,99.18
2023-03-28T21:00:52.805Z,99.29
2023-03-28T21:01:52.746Z,99.29
2023-03-28T21:02:52.754Z,99.49
2023-03-28T21:03:52.715Z,99.60
2023-03-28T21:04:52.781Z,99.39
2023-03-28T21:05:52.688Z,99.08
2023-03-28T21:06:52.700Z,99.08
2023-03-28T21:07:52.680Z,99.29
2023-03-28T21:08:52.681Z,99.08
2023-03-28T21:09:52.647Z,99.39
2023-03-28T21:10:52.714Z,99.80
2023-03-28T21:11:52.651Z,99.91
2023-03-28T21:12:52.593Z,99.49
2023-03-28T21:13:52.611Z,99.60
2023-03-28T21:14:52.601Z,99.60
2023-03-28T21:15:52.622Z,99.49
2023-03-28T21:16:52.614Z,99.49
2023-03-28T21:17:52.594Z,99.29
2023-03-28T21:18:52.529Z,99.39
2023-03-28T21:19:52.595Z,99.49
2023-03-28T21:20:52.534Z,99.49
2023-03-28T21:21:52.552Z,99.49
2023-03-28T21:22:52.533Z,99.80
2023-03-28T21:23:52.522Z,99.99
2023-03-28T21:24:52.462Z,99.99
2023-03-28T21:25:52.456Z,99.99
2023-03-28T21:26:52.424Z,99.99
2023-03-28T21:27:52.484Z,99.99
2023-03-28T21:28:52.553Z,99.99
2023-03-28T21:29:52.400Z,99.99
2023-03-28T21:30:52.390Z,99.99
2023-03-28T21:31:52.452Z,99.99
2023-03-28T21:32:52.465Z,99.99
2023-03-28T21:33:52.359Z,99.99
2023-03-28T21:34:52.363Z,99.99
2023-03-28T21:35:52.394Z,99.99
2023-03-28T21:36:52.319Z,99.99
2023-03-28T21:37:52.338Z,99.99
2023-03-28T21:38:52.296Z,99.99
2023-03-28T21:39:52.273Z,99.99
2023-03-28T21:40:52.348Z,99.99
2023-03-28T21:41:52.262Z,99.99
2023-03-28T21:42:52.242Z,99.99
2023-03-28T21:43:52.309Z,99.99
2023-03-28T21:44:52.207Z,99.99
2023-03-28T21:45:52.256Z,99.99
2023-03-28T21:46:52.235Z,99.99
2023-03-28T21:47:52.266Z,99.99
2023-03-28T21:48:52.170Z,99.99
2023-03-28T21:49:52.179Z,99.99
2023-03-28T21:50:52.133Z,99.99
2023-03-28T21:51:52.149Z,99.99
2023-03-28T21:52:52.116Z,99.99
2023-03-28T21:53:52.113Z,99.99
2023-03-28T21:54:52.139Z,99.99
2023-03-28T21:55:52.103Z,99.99
2023-03-28T21:56:52.174Z,99.99
2023-03-28T21:57:52.099Z,99.99
2023-03-28T21:58:52.070Z,99.99
2023-03-28T21:59:33.355Z,99.99
2023-03-28T22:00:33.368Z,99.99
2023-03-28T22:01:33.386Z,99.99
2023-03-28T22:02:33.386Z,99.99
2023-03-28T22:03:33.378Z,99.99
2023-03-28T22:04:33.294Z,99.99
2023-03-28T22:05:33.298Z,99.99
2023-03-28T22:06:33.320Z,99.99
2023-03-28T22:07:33.287Z,99.99
2023-03-28T22:08:33.304Z,99.99
2023-03-28T22:09:33.289Z,99.99
2023-03-28T22:10:33.294Z,99.99
2023-03-28T22:11:33.232Z,99.99
2023-03-28T22:12:33.210Z,99.99
2023-03-28T22:13:33.223Z,99.99
2023-03-28T22:14:33.217Z,99.99
2023-03-28T22:15:33.234Z,99.99
2023-03-28T22:16:33.156Z,99.99
2023-03-28T22:17:33.272Z,99.99
2023-03-28T22:18:33.134Z,99.99
2023-03-28T22:19:33.111Z,99.99
2023-03-28T22:20:33.128Z,99.99
2023-03-28T22:21:33.163Z,99.99
2023-03-28T22:22:33.106Z,99.99
2023-03-28T22:23:33.186Z,99.99
2023-03-28T22:24:33.086Z,99.60
2023-03-28T22:25:33.050Z,99.49
2023-03-28T22:26:33.145Z,99.18
2023-03-28T22:27:33.091Z,99.99
2023-03-28T22:28:33.069Z,99.80
2023-03-28T22:29:33.054Z,99.08
2023-03-28T22:30:33.095Z,98.77
2023-03-28T22:31:33.058Z,98.77
2023-03-28T22:32:33.024Z,98.87
2023-03-28T22:33:33.020Z,98.77
2023-03-28T22:34:33.067Z,98.77
2023-03-28T22:35:32.940Z,98.41
2023-03-28T22:36:32.913Z,98.83
2023-03-28T22:37:32.888Z,98.72
2023-03-28T22:38:32.919Z,98.77
2023-03-28T22:39:32.899Z,98.87
2023-03-28T22:40:32.875Z,98.72
2023-03-28T22:41:32.978Z,99.08
2023-03-28T22:42:32.858Z,98.77
2023-03-28T22:43:32.862Z,98.46
2023-03-28T22:44:32.836Z,98.56
2023-03-28T22:45:32.794Z,97.69
2023-03-28T22:46:32.883Z,98.10
2023-03-28T22:47:32.811Z,98.10
2023-03-28T22:48:32.762Z,98.05
2023-03-28T22:49:32.791Z,98.31
2023-03-28T22:50:32.772Z,98.52
2023-03-28T22:51:32.732Z,98.05
2023-03-28T22:52:32.711Z,97.42
2023-03-28T22:53:32.743Z,97.32
2023-03-28T22:54:32.714Z,97.32
2023-03-28T22:55:32.691Z,97.84
2023-03-28T22:56:32.677Z,98.66
2023-03-28T22:57:32.642Z,98.15
2023-03-28T22:58:32.638Z,97.94
2023-03-28T22:59:32.652Z,98.15
2023-03-28T23:00:32.650Z,97.84
2023-03-28T23:01:32.690Z,98.15
2023-03-28T23:02:32.605Z,98.25
2023-03-28T23:03:32.591Z,98.25
2023-03-28T23:04:32.593Z,98.35
2023-03-28T23:05:32.617Z,98.15
2023-03-28T23:06:32.579Z,97.59
2023-03-28T23:07:32.574Z,97.69
2023-03-28T23:08:32.536Z,97.89
2023-03-28T23:09:32.497Z,97.32
2023-03-28T23:10:32.512Z,97.89
2023-03-28T23:11:32.539Z,96.76
2023-03-28T23:12:32.468Z,96.66
2023-03-28T23:13:32.476Z,96.97
2023-03-28T23:14:32.487Z,97.17
2023-03-28T23:15:32.473Z,97.59
2023-03-28T23:16:32.492Z,97.28
2023-03-28T23:17:32.445Z,97.17
2023-03-28T23:18:32.454Z,97.07
2023-03-28T23:19:32.423Z,97.38
2023-03-28T23:20:32.402Z,97.17
2023-03-28T23:21:32.457Z,96.86
2023-03-28T23:22:32.341Z,96.97
2023-03-28T23:23:32.441Z,96.66
2023-03-28T23:24:32.338Z,95.73
2023-03-28T23:25:32.353Z,95.52
2023-03-28T23:26:32.310Z,96.34
2023-03-28T23:27:32.316Z,96.97
2023-03-28T23:28:32.297Z,97.59
2023-03-28T23:29:32.245Z,96.86
2023-03-28T23:30:32.261Z,96.97
2023-03-28T23:31:32.338Z,96.14
2023-03-28T23:32:32.255Z,95.73
2023-03-28T23:33:32.201Z,96.55
2023-03-28T23:34:32.199Z,96.24
2023-03-28T23:35:32.227Z,96.03
2023-03-28T23:36:32.265Z,96.14
2023-03-28T23:37:32.214Z,95.94
2023-03-28T23:38:32.182Z,96.34
2023-03-28T23:39:33.610Z,95.83
2023-03-28T23:40:32.165Z,96.03
2023-03-28T23:41:32.183Z,96.14
2023-03-28T23:42:32.671Z,95.10
2023-03-28T23:43:32.096Z,95.00
2023-03-28T23:44:32.130Z,95.21
2023-03-28T23:45:32.097Z,95.10
2023-03-28T23:46:32.101Z,95.10
2023-03-28T23:47:32.201Z,95.21
2023-03-28T23:48:32.135Z,96.03
2023-03-28T23:49:32.061Z,96.86
2023-03-28T23:50:32.047Z,96.66
2023-03-28T23:51:32.080Z,96.76
2023-03-28T23:52:33.301Z,95.52
2023-03-28T23:53:32.013Z,95.21
2023-03-28T23:54:32.020Z,95.21
2023-03-28T23:55:31.957Z,95.10
2023-03-28T23:56:31.948Z,95.37
2023-03-28T23:57:31.945Z,95.31
2023-03-28T23:58:31.925Z,95.52
2023-03-28T23:59:31.944Z,95.10
